createdAt,value
2018-05-18T00:00:34.567Z,14.90
2018-05-18T00:05:38.595Z,14.90
2018-05-18T00:10:41.859Z,14.80
2018-05-18T00:15:46.362Z,14.90
2018-05-18T00:20:51.060Z,15.00
2018-05-18T00:25:56.092Z,15.10
2018-05-18T00:30:59.555Z,15.10
2018-05-18T00:36:03.583Z,15.10
2018-05-18T00:41:06.836Z,15.00
2018-05-18T00:46:10.087Z,15.10
2018-05-18T00:51:14.111Z,15.10
2018-05-18T00:56:17.371Z,15.00
2018-05-18T01:01:20.631Z,15.00
2018-05-18T01:06:24.659Z,14.80
2018-05-18T01:11:27.927Z,14.70
2018-05-18T01:16:31.182Z,14.90
2018-05-18T01:21:35.200Z,14.90
2018-05-18T01:26:38.458Z,14.90
2018-05-18T01:31:41.735Z,15.00
2018-05-18T01:36:44.995Z,15.00
2018-05-18T01:41:48.259Z,14.80
2018-05-18T01:46:51.519Z,14.40
2018-05-18T01:51:54.779Z,14.30
2018-05-18T01:56:58.792Z,14.20
2018-05-18T02:02:02.067Z,14.40
2018-05-18T02:07:05.327Z,14.20
2018-05-18T02:12:08.600Z,14.20
2018-05-18T02:17:12.640Z,14.10
2018-05-18T02:22:15.904Z,14.10
2018-05-18T02:27:19.163Z,14.10
2018-05-18T02:32:22.449Z,14.30
2018-05-18T02:37:25.688Z,15.00
2018-05-18T02:42:28.951Z,14.40
2018-05-18T02:47:36.331Z,14.30
2018-05-18T02:52:39.587Z,13.90
2018-05-18T02:57:43.611Z,14.00
2018-05-18T03:02:47.647Z,14.00
2018-05-18T03:07:50.971Z,13.90
2018-05-18T03:12:54.263Z,13.90
2018-05-18T03:17:57.634Z,14.10
2018-05-18T03:23:00.910Z,14.10
2018-05-18T03:28:04.179Z,14.10
2018-05-18T03:33:08.220Z,14.40
2018-05-18T03:38:11.475Z,14.30
2018-05-18T03:43:14.726Z,14.20
2018-05-18T03:48:18.755Z,13.90
2018-05-18T03:53:22.776Z,13.80
2018-05-18T03:58:26.802Z,13.60
2018-05-18T04:03:42.686Z,13.40
2018-05-18T04:08:52.692Z,13.30
2018-05-18T04:13:56.063Z,13.70
2018-05-18T04:18:59.320Z,13.80
2018-05-18T04:24:03.384Z,13.70
2018-05-18T04:29:06.638Z,13.50
2018-05-18T04:34:09.912Z,13.30
2018-05-18T04:39:13.171Z,13.40
2018-05-18T04:44:16.439Z,13.30
2018-05-18T04:49:19.687Z,13.50
2018-05-18T04:54:23.691Z,13.80
2018-05-18T04:59:26.940Z,14.00
2018-05-18T05:04:30.188Z,14.10
2018-05-18T05:09:33.439Z,13.80
2018-05-18T05:14:36.711Z,13.60
2018-05-18T05:19:40.733Z,13.80
2018-05-18T05:24:44.754Z,14.00
2018-05-18T05:29:48.011Z,13.90
2018-05-18T05:34:51.276Z,14.10
2018-05-18T05:39:55.285Z,14.40
2018-05-18T05:44:58.540Z,14.30
2018-05-18T05:50:01.812Z,14.20
2018-05-18T05:55:05.069Z,14.30
2018-05-18T06:00:08.328Z,14.60
2018-05-18T06:05:11.590Z,14.80
2018-05-18T06:10:14.838Z,14.80
2018-05-18T06:15:18.160Z,15.30
2018-05-18T06:20:22.183Z,15.90
2018-05-18T06:25:25.459Z,15.90
2018-05-18T06:30:28.740Z,15.90
2018-05-18T06:35:32.012Z,16.00
2018-05-18T06:40:35.251Z,16.40
2018-05-18T06:45:38.512Z,16.70
2018-05-18T06:50:41.787Z,17.20
2018-05-18T06:55:45.040Z,17.50
2018-05-18T07:00:49.062Z,17.50
2018-05-18T07:05:52.389Z,17.40
2018-05-18T07:10:55.581Z,17.00
2018-05-18T07:15:59.603Z,17.00
2018-05-18T07:21:02.858Z,16.90
2018-05-18T07:26:06.120Z,16.60
2018-05-18T07:31:10.160Z,16.50
2018-05-18T07:36:13.525Z,16.40
2018-05-18T07:41:16.707Z,17.10
2018-05-18T07:46:20.505Z,17.60
2018-05-18T07:51:23.771Z,17.40
2018-05-18T07:56:27.032Z,18.90
2018-05-18T08:01:30.314Z,18.20
2018-05-18T08:06:33.835Z,18.40
2018-05-18T08:11:37.865Z,18.90
2018-05-18T08:16:41.131Z,18.90
2018-05-18T08:21:44.400Z,18.70
2018-05-18T08:32:24.362Z,19.90
2018-05-18T08:37:27.656Z,21.40
2018-05-18T08:42:30.908Z,20.90
2018-05-18T08:47:34.242Z,20.10
2018-05-18T08:52:37.504Z,21.70
2018-05-18T08:57:41.544Z,21.20
2018-05-18T09:02:44.830Z,21.10
2018-05-18T09:07:48.107Z,22.40
2018-05-18T09:12:52.148Z,22.10
2018-05-18T09:17:55.431Z,22.00
2018-05-18T09:22:58.729Z,20.70
2018-05-18T09:28:01.991Z,22.10
2018-05-18T09:33:05.280Z,21.30
2018-05-18T09:38:08.539Z,22.20
2018-05-18T09:43:11.791Z,22.40
2018-05-18T09:48:15.040Z,21.90
2018-05-18T09:53:19.052Z,20.20
2018-05-18T09:58:22.308Z,20.10
2018-05-18T10:03:25.553Z,20.60
2018-05-18T10:08:28.798Z,21.40
2018-05-18T10:13:32.052Z,21.60
2018-05-18T10:18:35.334Z,22.00
2018-05-18T10:23:44.160Z,22.00
2018-05-18T10:28:47.433Z,22.20
2018-05-18T10:33:50.692Z,22.90
2018-05-18T10:38:53.940Z,23.80
2018-05-18T10:43:57.191Z,23.30
2018-05-18T10:49:00.447Z,23.90
2018-05-18T10:54:03.711Z,23.90
2018-05-18T10:59:06.962Z,23.70
2018-05-18T11:04:11.118Z,24.60
2018-05-18T11:09:14.372Z,25.40
2018-05-18T11:14:17.707Z,25.30
2018-05-18T11:19:21.659Z,25.20
2018-05-18T11:24:24.917Z,25.10
2018-05-18T11:29:28.175Z,24.80
2018-05-18T11:34:31.433Z,24.90
2018-05-18T11:39:35.481Z,27.10
2018-05-18T11:44:38.746Z,26.90
2018-05-18T11:49:42.757Z,26.30
2018-05-18T11:54:46.098Z,26.10
2018-05-18T11:59:49.260Z,26.40
2018-05-18T12:04:52.538Z,26.70
2018-05-18T12:09:55.803Z,26.70
2018-05-18T12:14:59.114Z,26.90
2018-05-18T12:20:02.371Z,26.50
2018-05-18T12:25:05.624Z,26.00
2018-05-18T12:30:08.878Z,27.00
2018-05-18T12:35:12.131Z,27.70
2018-05-18T12:40:15.404Z,26.60
2018-05-18T12:45:18.659Z,26.40
2018-05-18T12:50:21.911Z,25.90
2018-05-18T12:55:25.164Z,26.90
2018-05-18T13:00:29.186Z,27.10
2018-05-18T13:05:33.199Z,27.40
2018-05-18T13:10:36.447Z,27.20
2018-05-18T13:15:39.695Z,27.50
2018-05-18T13:20:43.212Z,28.70
2018-05-18T13:25:46.478Z,28.90
2018-05-18T13:30:49.727Z,28.80
2018-05-18T13:35:52.984Z,28.80
2018-05-18T13:40:56.222Z,28.70
2018-05-18T13:45:59.500Z,27.20
2018-05-18T13:51:02.756Z,28.10
2018-05-18T13:56:06.004Z,28.10
2018-05-18T14:01:09.246Z,27.30
2018-05-18T14:06:12.506Z,28.40
2018-05-18T14:11:15.762Z,28.80
2018-05-18T14:16:19.014Z,28.70
2018-05-18T14:21:22.322Z,28.10
2018-05-18T14:26:25.617Z,28.00
2018-05-18T14:31:28.822Z,28.90
2018-05-18T14:36:32.080Z,28.60
2018-05-18T14:41:35.338Z,28.50
2018-05-18T14:46:38.592Z,27.20
2018-05-18T14:51:41.868Z,26.50
2018-05-18T14:56:45.143Z,27.00
2018-05-18T15:01:49.042Z,27.10
2018-05-18T15:06:52.312Z,27.00
2018-05-18T15:11:56.337Z,25.60
2018-05-18T15:16:59.681Z,25.50
2018-05-18T15:22:03.058Z,25.40
2018-05-18T15:27:07.095Z,25.40
2018-05-18T15:32:10.357Z,25.40
2018-05-18T15:37:13.596Z,25.20
2018-05-18T15:42:17.819Z,24.50
2018-05-18T15:47:21.071Z,24.00
2018-05-18T15:52:32.547Z,23.20
2018-05-18T15:57:36.558Z,23.00
2018-05-18T16:02:39.824Z,23.00
2018-05-18T16:07:43.073Z,23.00
2018-05-18T16:12:46.374Z,20.10
2018-05-18T16:17:49.564Z,23.20
2018-05-18T16:22:52.835Z,23.50
2018-05-18T16:27:56.137Z,23.50
2018-05-18T16:32:59.342Z,22.70
2018-05-18T16:38:02.596Z,22.70
2018-05-18T16:43:05.859Z,22.40
2018-05-18T16:48:09.122Z,22.40
2018-05-18T16:53:13.903Z,22.20
2018-05-18T16:58:17.928Z,22.00
2018-05-18T17:03:21.170Z,21.90
2018-05-18T17:08:24.419Z,22.10
2018-05-18T17:13:27.679Z,21.90
2018-05-18T17:18:30.968Z,21.70
2018-05-18T17:23:34.790Z,21.90
2018-05-18T17:28:38.163Z,21.90
2018-05-18T17:33:41.424Z,21.80
2018-05-18T17:38:44.685Z,21.60
2018-05-18T17:43:49.768Z,21.40
2018-05-18T17:48:54.911Z,21.10
2018-05-18T17:53:58.136Z,20.60
2018-05-18T17:59:01.387Z,20.90
2018-05-18T18:04:04.632Z,21.00
2018-05-18T18:09:07.891Z,20.90
2018-05-18T18:14:11.202Z,20.80
2018-05-18T18:19:15.155Z,20.40
2018-05-18T18:24:18.427Z,20.40
2018-05-18T18:29:21.683Z,20.50
2018-05-18T18:34:27.433Z,20.20
2018-05-18T18:39:30.651Z,20.10
2018-05-18T18:44:34.672Z,19.80
2018-05-18T18:49:37.948Z,19.70
2018-05-18T18:54:41.175Z,19.60
2018-05-18T18:59:44.430Z,19.40
2018-05-18T19:04:47.691Z,19.20
2018-05-18T19:09:51.065Z,19.00
2018-05-18T19:14:54.310Z,18.80
2018-05-18T19:19:57.577Z,18.70
2018-05-18T19:25:00.883Z,18.40
2018-05-18T19:30:04.243Z,18.30
2018-05-18T19:35:07.499Z,18.10
2018-05-18T19:40:10.877Z,18.00
2018-05-18T19:45:14.175Z,18.00
2018-05-18T19:50:18.199Z,17.90
2018-05-18T19:55:22.227Z,17.80
2018-05-18T20:00:26.254Z,17.40
2018-05-18T20:05:29.525Z,17.30
2018-05-18T20:10:32.799Z,17.30
2018-05-18T20:15:36.058Z,17.10
2018-05-18T20:20:39.302Z,17.00
2018-05-18T20:25:42.712Z,16.90
2018-05-18T20:30:46.739Z,16.80
2018-05-18T20:35:49.995Z,16.70
2018-05-18T20:40:53.263Z,16.60
2018-05-18T20:45:57.282Z,16.60
2018-05-18T20:51:00.570Z,16.60
2018-05-18T20:56:04.613Z,16.00
2018-05-18T21:01:08.633Z,15.90
2018-05-18T21:06:12.647Z,15.80
2018-05-18T21:11:16.678Z,15.90
2018-05-18T21:16:19.957Z,15.90
2018-05-18T21:21:23.211Z,15.90
2018-05-18T21:26:26.480Z,15.60
2018-05-18T21:31:30.654Z,15.60
2018-05-18T21:36:35.253Z,15.60
2018-05-18T21:41:38.494Z,15.50
2018-05-18T21:46:42.504Z,15.20
2018-05-18T21:51:45.778Z,15.10
2018-05-18T21:56:49.040Z,15.30
2018-05-18T22:01:52.310Z,15.30
2018-05-18T22:06:55.573Z,15.40
2018-05-18T22:11:58.852Z,15.40
2018-05-18T22:17:02.098Z,15.40
2018-05-18T22:22:05.372Z,15.50
2018-05-18T22:27:08.876Z,15.50
2018-05-18T22:32:12.946Z,15.30
2018-05-18T22:37:16.254Z,15.30
2018-05-18T22:42:19.493Z,15.20
2018-05-18T22:47:22.771Z,15.20
2018-05-18T22:52:26.043Z,14.50
2018-05-18T22:57:30.074Z,13.80
2018-05-18T23:02:33.330Z,13.70
2018-05-18T23:07:37.369Z,14.60
2018-05-18T23:12:40.624Z,14.50
2018-05-18T23:17:43.897Z,14.70
2018-05-18T23:22:47.162Z,14.50
2018-05-18T23:27:50.547Z,14.30
2018-05-18T23:32:53.878Z,13.80
2018-05-18T23:37:57.316Z,13.70
2018-05-18T23:43:00.582Z,13.90
2018-05-18T23:48:04.595Z,13.90
2018-05-18T23:53:07.850Z,13.80
2018-05-18T23:58:16.166Z,14.30
